sensor_id;sensor_type;location;lat;lon;timestamp;temperature;humidity
44431;DHT22;30135;47.866;-4.222;2023-04-01T00:01:02;13.00;95.70
44431;DHT22;30135;47.866;-4.222;2023-04-01T00:03:29;13.00;95.70
44431;DHT22;30135;47.866;-4.222;2023-04-01T00:05:57;13.00;95.60
44431;DHT22;30135;47.866;-4.222;2023-04-01T00:08:24;13.00;95.60
44431;DHT22;30135;47.866;-4.222;2023-04-01T00:10:52;12.90;95.50
44431;DHT22;30135;47.866;-4.222;2023-04-01T00:13:19;12.90;95.50
44431;DHT22;30135;47.866;-4.222;2023-04-01T00:15:45;12.90;95.50
44431;DHT22;30135;47.866;-4.222;2023-04-01T00:18:12;12.90;95.50
44431;DHT22;30135;47.866;-4.222;2023-04-01T00:20:38;12.90;95.60
44431;DHT22;30135;47.866;-4.222;2023-04-01T00:23:04;12.90;95.60
44431;DHT22;30135;47.866;-4.222;2023-04-01T00:25:30;12.90;95.60
44431;DHT22;30135;47.866;-4.222;2023-04-01T00:27:56;12.90;95.70
44431;DHT22;30135;47.866;-4.222;2023-04-01T00:30:22;12.90;95.70
44431;DHT22;30135;47.866;-4.222;2023-04-01T00:32:52;12.90;95.80
44431;DHT22;30135;47.866;-4.222;2023-04-01T00:35:21;12.90;95.80
44431;DHT22;30135;47.866;-4.222;2023-04-01T00:37:48;12.90;95.80
44431;DHT22;30135;47.866;-4.222;2023-04-01T00:40:32;12.90;95.90
44431;DHT22;30135;47.866;-4.222;2023-04-01T00:43:09;12.90;95.90
44431;DHT22;30135;47.866;-4.222;2023-04-01T00:45:40;12.90;96.00
44431;DHT22;30135;47.866;-4.222;2023-04-01T00:48:09;13.00;96.00
44431;DHT22;30135;47.866;-4.222;2023-04-01T00:50:37;12.90;96.00
44431;DHT22;30135;47.866;-4.222;2023-04-01T00:53:05;12.90;96.00
44431;DHT22;30135;47.866;-4.222;2023-04-01T00:55:35;12.90;96.00
44431;DHT22;30135;47.866;-4.222;2023-04-01T00:58:05;12.90;96.00
44431;DHT22;30135;47.866;-4.222;2023-04-01T01:00:34;12.90;96.00
44431;DHT22;30135;47.866;-4.222;2023-04-01T01:03:01;12.90;96.00
44431;DHT22;30135;47.866;-4.222;2023-04-01T01:05:53;12.90;95.90
44431;DHT22;30135;47.866;-4.222;2023-04-01T01:11:48;12.90;95.90
44431;DHT22;30135;47.866;-4.222;2023-04-01T01:16:57;12.90;95.90
44431;DHT22;30135;47.866;-4.222;2023-04-01T01:28:04;12.90;96.00
44431;DHT22;30135;47.866;-4.222;2023-04-01T01:30:53;12.90;96.00
44431;DHT22;30135;47.866;-4.222;2023-04-01T01:37:18;12.80;96.10
44431;DHT22;30135;47.866;-4.222;2023-04-01T01:39:49;12.80;96.10
44431;DHT22;30135;47.866;-4.222;2023-04-01T01:42:20;12.80;96.20
44431;DHT22;30135;47.866;-4.222;2023-04-01T01:44:49;12.80;96.20
44431;DHT22;30135;47.866;-4.222;2023-04-01T01:47:16;12.80;96.20
44431;DHT22;30135;47.866;-4.222;2023-04-01T01:49:45;12.80;96.20
44431;DHT22;30135;47.866;-4.222;2023-04-01T01:52:12;12.80;96.30
44431;DHT22;30135;47.866;-4.222;2023-04-01T01:54:52;12.80;96.20
44431;DHT22;30135;47.866;-4.222;2023-04-01T01:57:25;12.80;96.20
44431;DHT22;30135;47.866;-4.222;2023-04-01T01:59:56;12.80;96.20
44431;DHT22;30135;47.866;-4.222;2023-04-01T02:02:26;12.80;96.20
44431;DHT22;30135;47.866;-4.222;2023-04-01T02:04:54;12.80;96.20
44431;DHT22;30135;47.866;-4.222;2023-04-01T02:07:25;12.80;96.20
44431;DHT22;30135;47.866;-4.222;2023-04-01T02:09:54;12.80;96.20
44431;DHT22;30135;47.866;-4.222;2023-04-01T02:12:21;12.80;96.20
44431;DHT22;30135;47.866;-4.222;2023-04-01T02:14:52;12.80;96.20
44431;DHT22;30135;47.866;-4.222;2023-04-01T02:17:30;12.80;96.20
44431;DHT22;30135;47.866;-4.222;2023-04-01T02:20:04;12.80;96.20
44431;DHT22;30135;47.866;-4.222;2023-04-01T02:22:39;12.80;96.20
44431;DHT22;30135;47.866;-4.222;2023-04-01T02:25:37;12.80;96.20
44431;DHT22;30135;47.866;-4.222;2023-04-01T02:28:06;12.80;96.20
44431;DHT22;30135;47.866;-4.222;2023-04-01T02:30:35;12.80;96.20
44431;DHT22;30135;47.866;-4.222;2023-04-01T02:33:03;12.80;96.20
44431;DHT22;30135;47.866;-4.222;2023-04-01T02:35:30;12.80;96.20
44431;DHT22;30135;47.866;-4.222;2023-04-01T02:37:56;12.80;96.50
44431;DHT22;30135;47.866;-4.222;2023-04-01T02:40:22;12.80;96.20
44431;DHT22;30135;47.866;-4.222;2023-04-01T02:42:48;12.80;96.20
44431;DHT22;30135;47.866;-4.222;2023-04-01T02:45:14;12.80;96.20
44431;DHT22;30135;47.866;-4.222;2023-04-01T02:47:40;12.80;96.20
44431;DHT22;30135;47.866;-4.222;2023-04-01T02:50:07;12.80;96.30
44431;DHT22;30135;47.866;-4.222;2023-04-01T02:52:33;12.90;96.30
44431;DHT22;30135;47.866;-4.222;2023-04-01T02:55:00;12.90;96.30
44431;DHT22;30135;47.866;-4.222;2023-04-01T02:57:26;12.80;96.20
44431;DHT22;30135;47.866;-4.222;2023-04-01T02:59:52;12.80;96.30
44431;DHT22;30135;47.866;-4.222;2023-04-01T03:02:18;12.90;96.30
44431;DHT22;30135;47.866;-4.222;2023-04-01T03:04:44;12.80;96.30
44431;DHT22;30135;47.866;-4.222;2023-04-01T03:07:11;12.80;96.30
44431;DHT22;30135;47.866;-4.222;2023-04-01T03:09:37;12.80;96.20
44431;DHT22;30135;47.866;-4.222;2023-04-01T03:12:04;12.80;96.20
44431;DHT22;30135;47.866;-4.222;2023-04-01T03:14:31;12.80;96.20
44431;DHT22;30135;47.866;-4.222;2023-04-01T03:16:57;12.80;96.20
44431;DHT22;30135;47.866;-4.222;2023-04-01T03:19:23;12.80;96.20
44431;DHT22;30135;47.866;-4.222;2023-04-01T03:21:49;12.80;96.20
44431;DHT22;30135;47.866;-4.222;2023-04-01T03:24:15;12.80;96.20
44431;DHT22;30135;47.866;-4.222;2023-04-01T03:26:41;12.70;96.10
44431;DHT22;30135;47.866;-4.222;2023-04-01T03:29:07;12.70;96.10
44431;DHT22;30135;47.866;-4.222;2023-04-01T03:31:33;12.70;96.10
44431;DHT22;30135;47.866;-4.222;2023-04-01T03:33:59;12.70;96.20
44431;DHT22;30135;47.866;-4.222;2023-04-01T03:36:25;12.70;96.20
44431;DHT22;30135;47.866;-4.222;2023-04-01T03:38:51;12.70;96.20
44431;DHT22;30135;47.866;-4.222;2023-04-01T03:41:17;12.70;96.20
44431;DHT22;30135;47.866;-4.222;2023-04-01T03:43:44;12.70;96.20
44431;DHT22;30135;47.866;-4.222;2023-04-01T03:46:10;12.70;96.10
44431;DHT22;30135;47.866;-4.222;2023-04-01T03:48:36;12.70;96.10
44431;DHT22;30135;47.866;-4.222;2023-04-01T03:51:07;12.70;96.10
44431;DHT22;30135;47.866;-4.222;2023-04-01T03:53:33;12.70;96.10
44431;DHT22;30135;47.866;-4.222;2023-04-01T03:56:03;12.70;96.10
44431;DHT22;30135;47.866;-4.222;2023-04-01T03:58:33;12.70;96.00
44431;DHT22;30135;47.866;-4.222;2023-04-01T04:01:00;12.70;96.00
44431;DHT22;30135;47.866;-4.222;2023-04-01T04:03:26;12.70;96.00
44431;DHT22;30135;47.866;-4.222;2023-04-01T04:05:52;12.70;96.30
44431;DHT22;30135;47.866;-4.222;2023-04-01T04:08:18;12.70;96.00
44431;DHT22;30135;47.866;-4.222;2023-04-01T04:10:47;12.70;95.90
44431;DHT22;30135;47.866;-4.222;2023-04-01T04:13:13;12.70;95.90
44431;DHT22;30135;47.866;-4.222;2023-04-01T04:15:39;12.70;95.90
44431;DHT22;30135;47.866;-4.222;2023-04-01T04:18:05;12.70;95.90
44431;DHT22;30135;47.866;-4.222;2023-04-01T04:20:31;12.70;95.90
44431;DHT22;30135;47.866;-4.222;2023-04-01T04:22:59;12.70;95.90
44431;DHT22;30135;47.866;-4.222;2023-04-01T04:25:26;12.70;95.90
44431;DHT22;30135;47.866;-4.222;2023-04-01T04:27:52;12.60;95.80
44431;DHT22;30135;47.866;-4.222;2023-04-01T04:30:18;12.60;95.80
44431;DHT22;30135;47.866;-4.222;2023-04-01T04:32:43;12.60;95.70
44431;DHT22;30135;47.866;-4.222;2023-04-01T04:35:09;12.60;95.60
44431;DHT22;30135;47.866;-4.222;2023-04-01T04:37:35;12.60;95.60
44431;DHT22;30135;47.866;-4.222;2023-04-01T04:40:01;12.60;95.60
44431;DHT22;30135;47.866;-4.222;2023-04-01T04:42:28;12.60;95.50
44431;DHT22;30135;47.866;-4.222;2023-04-01T04:44:53;12.60;95.50
44431;DHT22;30135;47.866;-4.222;2023-04-01T04:47:19;12.60;95.50
44431;DHT22;30135;47.866;-4.222;2023-04-01T04:49:45;12.60;95.40
44431;DHT22;30135;47.866;-4.222;2023-04-01T04:52:11;12.60;95.40
44431;DHT22;30135;47.866;-4.222;2023-04-01T04:54:37;12.60;95.40
44431;DHT22;30135;47.866;-4.222;2023-04-01T04:57:03;12.60;95.40
44431;DHT22;30135;47.866;-4.222;2023-04-01T04:59:30;12.50;95.40
44431;DHT22;30135;47.866;-4.222;2023-04-01T05:01:57;12.60;95.40
44431;DHT22;30135;47.866;-4.222;2023-04-01T05:04:23;12.50;95.40
44431;DHT22;30135;47.866;-4.222;2023-04-01T05:06:49;12.50;95.40
44431;DHT22;30135;47.866;-4.222;2023-04-01T05:09:17;12.50;95.50
44431;DHT22;30135;47.866;-4.222;2023-04-01T05:11:43;12.60;95.50
44431;DHT22;30135;47.866;-4.222;2023-04-01T05:14:14;12.50;95.40
44431;DHT22;30135;47.866;-4.222;2023-04-01T05:16:41;12.50;95.50
44431;DHT22;30135;47.866;-4.222;2023-04-01T05:19:07;12.50;95.50
44431;DHT22;30135;47.866;-4.222;2023-04-01T05:21:33;12.50;95.50
44431;DHT22;30135;47.866;-4.222;2023-04-01T05:23:59;12.50;95.50
44431;DHT22;30135;47.866;-4.222;2023-04-01T05:26:25;12.50;95.50
44431;DHT22;30135;47.866;-4.222;2023-04-01T05:28:51;12.50;95.50
44431;DHT22;30135;47.866;-4.222;2023-04-01T05:31:17;12.50;95.50
44431;DHT22;30135;47.866;-4.222;2023-04-01T05:33:43;12.50;95.50
44431;DHT22;30135;47.866;-4.222;2023-04-01T05:36:11;12.50;95.50
44431;DHT22;30135;47.866;-4.222;2023-04-01T05:38:39;12.60;95.50
44431;DHT22;30135;47.866;-4.222;2023-04-01T05:41:05;12.50;95.50
44431;DHT22;30135;47.866;-4.222;2023-04-01T05:43:36;12.50;95.50
44431;DHT22;30135;47.866;-4.222;2023-04-01T05:46:02;12.50;95.50
44431;DHT22;30135;47.866;-4.222;2023-04-01T05:48:28;12.50;95.60
44431;DHT22;30135;47.866;-4.222;2023-04-01T05:50:54;12.50;95.40
44431;DHT22;30135;47.866;-4.222;2023-04-01T05:53:20;12.50;95.40
44431;DHT22;30135;47.866;-4.222;2023-04-01T05:55:47;12.50;95.40
44431;DHT22;30135;47.866;-4.222;2023-04-01T05:58:13;12.50;95.30
44431;DHT22;30135;47.866;-4.222;2023-04-01T06:00:39;12.50;95.30
44431;DHT22;30135;47.866;-4.222;2023-04-01T06:03:05;12.50;95.30
44431;DHT22;30135;47.866;-4.222;2023-04-01T06:05:41;12.50;95.20
44431;DHT22;30135;47.866;-4.222;2023-04-01T06:08:18;12.50;95.10
44431;DHT22;30135;47.866;-4.222;2023-04-01T06:11:04;12.50;95.20
44431;DHT22;30135;47.866;-4.222;2023-04-01T06:13:58;12.50;95.20
44431;DHT22;30135;47.866;-4.222;2023-04-01T06:16:56;12.50;95.30
44431;DHT22;30135;47.866;-4.222;2023-04-01T06:19:32;12.50;95.30
44431;DHT22;30135;47.866;-4.222;2023-04-01T06:25:12;12.50;95.40
44431;DHT22;30135;47.866;-4.222;2023-04-01T06:51:42;12.10;95.50
44431;DHT22;30135;47.866;-4.222;2023-04-01T06:57:14;12.00;95.70
44431;DHT22;30135;47.866;-4.222;2023-04-01T06:59:47;12.00;95.80
44431;DHT22;30135;47.866;-4.222;2023-04-01T07:02:36;12.00;95.80
44431;DHT22;30135;47.866;-4.222;2023-04-01T07:05:05;12.00;95.90
44431;DHT22;30135;47.866;-4.222;2023-04-01T07:07:47;12.00;96.00
44431;DHT22;30135;47.866;-4.222;2023-04-01T07:10:35;12.00;96.10
44431;DHT22;30135;47.866;-4.222;2023-04-01T07:13:32;12.00;96.20
44431;DHT22;30135;47.866;-4.222;2023-04-01T07:16:06;11.90;96.30
44431;DHT22;30135;47.866;-4.222;2023-04-01T07:19:33;12.00;96.40
44431;DHT22;30135;47.866;-4.222;2023-04-01T07:21:47;12.00;96.50
44431;DHT22;30135;47.866;-4.222;2023-04-01T07:24:25;12.00;96.60
44431;DHT22;30135;47.866;-4.222;2023-04-01T07:26:55;12.00;96.70
44431;DHT22;30135;47.866;-4.222;2023-04-01T07:29:22;12.10;96.80
44431;DHT22;30135;47.866;-4.222;2023-04-01T07:37:44;12.00;96.90
44431;DHT22;30135;47.866;-4.222;2023-04-01T07:40:39;12.00;96.90
44431;DHT22;30135;47.866;-4.222;2023-04-01T07:43:21;12.00;96.90
44431;DHT22;30135;47.866;-4.222;2023-04-01T07:46:33;12.00;96.90
44431;DHT22;30135;47.866;-4.222;2023-04-01T07:52:04;12.00;97.00
44431;DHT22;30135;47.866;-4.222;2023-04-01T07:57:34;12.10;97.20
44431;DHT22;30135;47.866;-4.222;2023-04-01T08:00:19;12.10;97.20
44431;DHT22;30135;47.866;-4.222;2023-04-01T08:11:39;12.00;97.40
44431;DHT22;30135;47.866;-4.222;2023-04-01T08:14:30;12.00;97.10
44431;DHT22;30135;47.866;-4.222;2023-04-01T08:20:08;11.90;97.20
44431;DHT22;30135;47.866;-4.222;2023-04-01T08:22:49;12.00;97.30
44431;DHT22;30135;47.866;-4.222;2023-04-01T08:25:22;11.90;97.20
44431;DHT22;30135;47.866;-4.222;2023-04-01T08:28:20;11.90;97.20
44431;DHT22;30135;47.866;-4.222;2023-04-01T08:31:22;11.90;97.20
44431;DHT22;30135;47.866;-4.222;2023-04-01T08:33:49;11.90;97.20
44431;DHT22;30135;47.866;-4.222;2023-04-01T08:36:32;11.90;97.20
44431;DHT22;30135;47.866;-4.222;2023-04-01T08:39:09;12.00;97.30
44431;DHT22;30135;47.866;-4.222;2023-04-01T08:51:01;12.00;97.50
44431;DHT22;30135;47.866;-4.222;2023-04-01T09:00:32;12.10;97.60
44431;DHT22;30135;47.866;-4.222;2023-04-01T09:21:57;12.00;97.10
44431;DHT22;30135;47.866;-4.222;2023-04-01T09:36:45;12.00;97.50
44431;DHT22;30135;47.866;-4.222;2023-04-01T09:39:34;12.10;97.90
44431;DHT22;30135;47.866;-4.222;2023-04-01T09:42:28;12.10;97.60
44431;DHT22;30135;47.866;-4.222;2023-04-01T09:45:17;12.10;97.50
44431;DHT22;30135;47.866;-4.222;2023-04-01T09:50:52;12.20;97.50
44431;DHT22;30135;47.866;-4.222;2023-04-01T10:09:07;12.20;96.20
44431;DHT22;30135;47.866;-4.222;2023-04-01T10:15:31;12.20;95.90
44431;DHT22;30135;47.866;-4.222;2023-04-01T10:23:44;12.30;96.10
44431;DHT22;30135;47.866;-4.222;2023-04-01T10:35:09;12.30;95.70
44431;DHT22;30135;47.866;-4.222;2023-04-01T10:56:47;12.40;95.20
44431;DHT22;30135;47.866;-4.222;2023-04-01T11:18:43;12.40;95.70
44431;DHT22;30135;47.866;-4.222;2023-04-01T11:35:44;12.70;95.10
44431;DHT22;30135;47.866;-4.222;2023-04-01T11:42:09;12.80;95.00
44431;DHT22;30135;47.866;-4.222;2023-04-01T11:44:47;12.90;94.90
44431;DHT22;30135;47.866;-4.222;2023-04-01T11:56:49;12.90;94.30
44431;DHT22;30135;47.866;-4.222;2023-04-01T12:20:30;13.10;93.20
44431;DHT22;30135;47.866;-4.222;2023-04-01T12:29:43;13.30;92.80
44431;DHT22;30135;47.866;-4.222;2023-04-01T12:32:31;13.30;92.60
44431;DHT22;30135;47.866;-4.222;2023-04-01T12:35:46;13.40;92.70
44431;DHT22;30135;47.866;-4.222;2023-04-01T12:38:48;13.50;92.60
44431;DHT22;30135;47.866;-4.222;2023-04-01T12:44:23;13.50;92.20
44431;DHT22;30135;47.866;-4.222;2023-04-01T12:55:41;13.60;91.90
44431;DHT22;30135;47.866;-4.222;2023-04-01T13:04:44;13.70;91.10
44431;DHT22;30135;47.866;-4.222;2023-04-01T13:10:56;13.80;91.30
44431;DHT22;30135;47.866;-4.222;2023-04-01T13:16:34;13.80;90.60
44431;DHT22;30135;47.866;-4.222;2023-04-01T13:24:58;13.90;90.40
44431;DHT22;30135;47.866;-4.222;2023-04-01T13:27:45;13.90;90.60
44431;DHT22;30135;47.866;-4.222;2023-04-01T13:30:28;14.00;90.60
44431;DHT22;30135;47.866;-4.222;2023-04-01T13:42:47;14.00;90.40
44431;DHT22;30135;47.866;-4.222;2023-04-01T13:45:17;13.90;90.40
44431;DHT22;30135;47.866;-4.222;2023-04-01T13:48:16;13.90;90.60
44431;DHT22;30135;47.866;-4.222;2023-04-01T14:02:42;14.00;91.40
44431;DHT22;30135;47.866;-4.222;2023-04-01T14:08:51;13.90;91.10
44431;DHT22;30135;47.866;-4.222;2023-04-01T14:11:48;13.90;91.20
44431;DHT22;30135;47.866;-4.222;2023-04-01T14:23:12;14.10;91.00
44431;DHT22;30135;47.866;-4.222;2023-04-01T14:32:15;14.00;90.90
44431;DHT22;30135;47.866;-4.222;2023-04-01T14:35:17;14.00;90.90
44431;DHT22;30135;47.866;-4.222;2023-04-01T14:41:20;13.90;90.80
44431;DHT22;30135;47.866;-4.222;2023-04-01T14:44:36;13.80;90.90
44431;DHT22;30135;47.866;-4.222;2023-04-01T14:47:48;13.80;90.90
44431;DHT22;30135;47.866;-4.222;2023-04-01T14:50:27;13.70;90.90
44431;DHT22;30135;47.866;-4.222;2023-04-01T14:58:13;13.60;91.00
44431;DHT22;30135;47.866;-4.222;2023-04-01T15:03:25;13.60;91.10
44431;DHT22;30135;47.866;-4.222;2023-04-01T15:14:53;13.50;91.00
44431;DHT22;30135;47.866;-4.222;2023-04-01T15:17:55;13.50;91.10
44431;DHT22;30135;47.866;-4.222;2023-04-01T15:23:31;13.50;91.00
44431;DHT22;30135;47.866;-4.222;2023-04-01T15:26:17;13.50;90.80
44431;DHT22;30135;47.866;-4.222;2023-04-01T15:32:16;13.40;90.90
44431;DHT22;30135;47.866;-4.222;2023-04-01T15:35:14;13.40;90.90
44431;DHT22;30135;47.866;-4.222;2023-04-01T15:41:23;13.40;90.80
44431;DHT22;30135;47.866;-4.222;2023-04-01T15:43:53;13.40;90.80
44431;DHT22;30135;47.866;-4.222;2023-04-01T15:49:32;13.40;90.90
44431;DHT22;30135;47.866;-4.222;2023-04-01T15:52:15;13.50;91.00
44431;DHT22;30135;47.866;-4.222;2023-04-01T16:15:01;13.70;90.30
44431;DHT22;30135;47.866;-4.222;2023-04-01T16:17:59;13.70;90.30
44431;DHT22;30135;47.866;-4.222;2023-04-01T16:31:54;13.60;90.50
44431;DHT22;30135;47.866;-4.222;2023-04-01T16:38:40;13.50;90.60
44431;DHT22;30135;47.866;-4.222;2023-04-01T16:43:40;13.50;90.60
44431;DHT22;30135;47.866;-4.222;2023-04-01T17:00:09;13.40;90.60
44431;DHT22;30135;47.866;-4.222;2023-04-01T17:06:02;13.40;90.80
44431;DHT22;30135;47.866;-4.222;2023-04-01T17:11:31;13.30;90.90
44431;DHT22;30135;47.866;-4.222;2023-04-01T17:14:41;13.40;91.00
44431;DHT22;30135;47.866;-4.222;2023-04-01T17:35:42;13.20;91.40
44431;DHT22;30135;47.866;-4.222;2023-04-01T17:53:18;13.10;92.10
44431;DHT22;30135;47.866;-4.222;2023-04-01T17:59:15;13.10;92.20
44431;DHT22;30135;47.866;-4.222;2023-04-01T18:10:48;13.00;92.30
44431;DHT22;30135;47.866;-4.222;2023-04-01T18:13:42;12.90;92.20
44431;DHT22;30135;47.866;-4.222;2023-04-01T18:16:26;13.00;92.30
44431;DHT22;30135;47.866;-4.222;2023-04-01T18:19:14;12.90;92.30
44431;DHT22;30135;47.866;-4.222;2023-04-01T18:21:53;12.90;92.40
44431;DHT22;30135;47.866;-4.222;2023-04-01T18:24:42;12.90;92.40
44431;DHT22;30135;47.866;-4.222;2023-04-01T18:30:34;12.80;92.50
44431;DHT22;30135;47.866;-4.222;2023-04-01T18:33:15;12.80;92.50
44431;DHT22;30135;47.866;-4.222;2023-04-01T18:36:21;12.80;92.60
44431;DHT22;30135;47.866;-4.222;2023-04-01T18:39:00;12.80;92.70
44431;DHT22;30135;47.866;-4.222;2023-04-01T18:44:34;12.70;92.80
44431;DHT22;30135;47.866;-4.222;2023-04-01T18:56:13;12.70;93.00
44431;DHT22;30135;47.866;-4.222;2023-04-01T18:58:48;12.70;93.00
44431;DHT22;30135;47.866;-4.222;2023-04-01T19:01:39;12.70;93.10
44431;DHT22;30135;47.866;-4.222;2023-04-01T19:25:37;12.70;93.70
44431;DHT22;30135;47.866;-4.222;2023-04-01T19:29:01;12.70;93.80
44431;DHT22;30135;47.866;-4.222;2023-04-01T19:37:09;12.70;94.10
44431;DHT22;30135;47.866;-4.222;2023-04-01T19:43:26;12.60;94.40
44431;DHT22;30135;47.866;-4.222;2023-04-01T19:46:37;12.60;94.30
44431;DHT22;30135;47.866;-4.222;2023-04-01T19:52:20;12.60;94.40
44431;DHT22;30135;47.866;-4.222;2023-04-01T19:57:56;12.60;94.50
44431;DHT22;30135;47.866;-4.222;2023-04-01T20:00:51;12.60;94.50
44431;DHT22;30135;47.866;-4.222;2023-04-01T20:09:07;12.60;94.60
44431;DHT22;30135;47.866;-4.222;2023-04-01T20:14:51;12.60;94.70
44431;DHT22;30135;47.866;-4.222;2023-04-01T20:17:43;12.50;94.60
44431;DHT22;30135;47.866;-4.222;2023-04-01T20:31:11;12.60;94.90
44431;DHT22;30135;47.866;-4.222;2023-04-01T20:37:21;12.60;94.90
44431;DHT22;30135;47.866;-4.222;2023-04-01T20:50:58;12.60;95.00
44431;DHT22;30135;47.866;-4.222;2023-04-01T20:53:36;12.60;95.00
44431;DHT22;30135;47.866;-4.222;2023-04-01T20:56:21;12.60;95.00
44431;DHT22;30135;47.866;-4.222;2023-04-01T21:01:51;12.60;95.10
44431;DHT22;30135;47.866;-4.222;2023-04-01T21:07:54;12.60;95.10
44431;DHT22;30135;47.866;-4.222;2023-04-01T21:10:29;12.50;95.10
44431;DHT22;30135;47.866;-4.222;2023-04-01T21:16:49;12.50;95.10
44431;DHT22;30135;47.866;-4.222;2023-04-01T21:47:02;12.60;95.40
44431;DHT22;30135;47.866;-4.222;2023-04-01T21:49:51;12.60;95.10
44431;DHT22;30135;47.866;-4.222;2023-04-01T21:53:00;12.60;95.10
44431;DHT22;30135;47.866;-4.222;2023-04-01T21:59:13;12.60;95.10
44431;DHT22;30135;47.866;-4.222;2023-04-01T22:07:14;12.60;95.00
44431;DHT22;30135;47.866;-4.222;2023-04-01T22:10:00;12.70;95.00
44431;DHT22;30135;47.866;-4.222;2023-04-01T22:18:37;12.70;95.00
44431;DHT22;30135;47.866;-4.222;2023-04-01T22:21:12;12.70;94.90
44431;DHT22;30135;47.866;-4.222;2023-04-01T22:23:55;12.70;95.00
44431;DHT22;30135;47.866;-4.222;2023-04-01T22:42:07;12.60;94.70
44431;DHT22;30135;47.866;-4.222;2023-04-01T22:56:07;12.60;94.60
44431;DHT22;30135;47.866;-4.222;2023-04-01T22:58:46;12.60;94.70
44431;DHT22;30135;47.866;-4.222;2023-04-01T23:01:25;12.70;94.70
44431;DHT22;30135;47.866;-4.222;2023-04-01T23:03:55;12.70;94.70
44431;DHT22;30135;47.866;-4.222;2023-04-01T23:06:42;12.60;94.70
44431;DHT22;30135;47.866;-4.222;2023-04-01T23:12:08;12.60;94.70
44431;DHT22;30135;47.866;-4.222;2023-04-01T23:14:47;12.60;94.70
44431;DHT22;30135;47.866;-4.222;2023-04-01T23:20:21;12.60;94.70
44431;DHT22;30135;47.866;-4.222;2023-04-01T23:28:54;12.60;94.70
44431;DHT22;30135;47.866;-4.222;2023-04-01T23:31:32;12.70;94.70
44431;DHT22;30135;47.866;-4.222;2023-04-01T23:41:55;12.60;94.70
44431;DHT22;30135;47.866;-4.222;2023-04-01T23:44:25;12.60;94.70
44431;DHT22;30135;47.866;-4.222;2023-04-01T23:46:52;12.70;94.80
44431;DHT22;30135;47.866;-4.222;2023-04-01T23:49:25;12.70;94.70
44431;DHT22;30135;47.866;-4.222;2023-04-01T23:52:09;12.70;94.70
44431;DHT22;30135;47.866;-4.222;2023-04-01T23:55:13;12.70;94.70
